sensor_id;sensor_type;location;lat;lon;timestamp;P1;durP1;ratioP1;P2;durP2;ratioP2
7807;SDS011;3949;49.254;8.894;2023-07-29T00:00:56;2.80;;;2.60;;
7807;SDS011;3949;49.254;8.894;2023-07-29T00:03:22;2.57;;;2.20;;
7807;SDS011;3949;49.254;8.894;2023-07-29T00:05:49;2.80;;;2.10;;
7807;SDS011;3949;49.254;8.894;2023-07-29T00:08:15;2.20;;;2.00;;
7807;SDS011;3949;49.254;8.894;2023-07-29T00:10:41;2.40;;;2.20;;
7807;SDS011;3949;49.254;8.894;2023-07-29T00:13:07;2.17;;;1.97;;
7807;SDS011;3949;49.254;8.894;2023-07-29T00:15:33;3.47;;;2.00;;
7807;SDS011;3949;49.254;8.894;2023-07-29T00:17:59;3.50;;;3.20;;
7807;SDS011;3949;49.254;8.894;2023-07-29T00:20:25;3.60;;;3.30;;
7807;SDS011;3949;49.254;8.894;2023-07-29T00:22:51;3.17;;;2.87;;
7807;SDS011;3949;49.254;8.894;2023-07-29T00:25:20;3.30;;;2.70;;
7807;SDS011;3949;49.254;8.894;2023-07-29T00:27:47;2.70;;;2.50;;
7807;SDS011;3949;49.254;8.894;2023-07-29T00:30:13;3.20;;;2.10;;
7807;SDS011;3949;49.254;8.894;2023-07-29T00:32:39;2.80;;;2.50;;
7807;SDS011;3949;49.254;8.894;2023-07-29T00:35:05;3.13;;;2.20;;
7807;SDS011;3949;49.254;8.894;2023-07-29T00:37:31;5.30;;;4.80;;
7807;SDS011;3949;49.254;8.894;2023-07-29T00:39:57;7.93;;;7.17;;
7807;SDS011;3949;49.254;8.894;2023-07-29T00:42:23;4.97;;;4.57;;
7807;SDS011;3949;49.254;8.894;2023-07-29T00:44:49;4.30;;;3.90;;
7807;SDS011;3949;49.254;8.894;2023-07-29T00:47:15;3.53;;;3.23;;
7807;SDS011;3949;49.254;8.894;2023-07-29T00:49:42;4.50;;;2.87;;
7807;SDS011;3949;49.254;8.894;2023-07-29T00:52:09;2.70;;;2.27;;
7807;SDS011;3949;49.254;8.894;2023-07-29T00:54:37;3.87;;;2.43;;
7807;SDS011;3949;49.254;8.894;2023-07-29T00:57:03;3.33;;;2.33;;
7807;SDS011;3949;49.254;8.894;2023-07-29T00:59:30;2.13;;;2.03;;
7807;SDS011;3949;49.254;8.894;2023-07-29T01:01:57;2.50;;;2.30;;
7807;SDS011;3949;49.254;8.894;2023-07-29T01:04:23;2.73;;;2.53;;
7807;SDS011;3949;49.254;8.894;2023-07-29T01:06:59;4.63;;;3.23;;
7807;SDS011;3949;49.254;8.894;2023-07-29T01:14:34;3.00;;;2.70;;
7807;SDS011;3949;49.254;8.894;2023-07-29T01:17:03;3.43;;;2.30;;
7807;SDS011;3949;49.254;8.894;2023-07-29T01:22:08;2.30;;;2.10;;
7807;SDS011;3949;49.254;8.894;2023-07-29T01:24:36;2.63;;;1.90;;
7807;SDS011;3949;49.254;8.894;2023-07-29T01:27:02;2.07;;;1.97;;
7807;SDS011;3949;49.254;8.894;2023-07-29T01:29:29;2.20;;;2.00;;
7807;SDS011;3949;49.254;8.894;2023-07-29T01:31:56;2.50;;;2.30;;
7807;SDS011;3949;49.254;8.894;2023-07-29T01:34:32;3.00;;;2.50;;
7807;SDS011;3949;49.254;8.894;2023-07-29T01:37:01;2.17;;;2.07;;
7807;SDS011;3949;49.254;8.894;2023-07-29T01:39:29;2.53;;;2.10;;
7807;SDS011;3949;49.254;8.894;2023-07-29T01:41:55;2.40;;;2.20;;
7807;SDS011;3949;49.254;8.894;2023-07-29T01:44:21;2.40;;;2.20;;
7807;SDS011;3949;49.254;8.894;2023-07-29T01:46:47;2.37;;;2.17;;
7807;SDS011;3949;49.254;8.894;2023-07-29T01:49:13;2.93;;;2.30;;
7807;SDS011;3949;49.254;8.894;2023-07-29T01:51:39;2.37;;;2.13;;
7807;SDS011;3949;49.254;8.894;2023-07-29T01:54:05;2.20;;;2.00;;
7807;SDS011;3949;49.254;8.894;2023-07-29T01:56:31;2.20;;;2.00;;
7807;SDS011;3949;49.254;8.894;2023-07-29T01:58:57;2.40;;;2.20;;
7807;SDS011;3949;49.254;8.894;2023-07-29T02:01:23;3.77;;;2.33;;
7807;SDS011;3949;49.254;8.894;2023-07-29T02:03:49;2.83;;;2.10;;
7807;SDS011;3949;49.254;8.894;2023-07-29T02:06:19;2.40;;;2.20;;
7807;SDS011;3949;49.254;8.894;2023-07-29T02:08:46;3.67;;;2.50;;
7807;SDS011;3949;49.254;8.894;2023-07-29T02:11:11;3.17;;;2.40;;
7807;SDS011;3949;49.254;8.894;2023-07-29T02:13:37;2.60;;;2.40;;
7807;SDS011;3949;49.254;8.894;2023-07-29T02:16:03;4.97;;;2.20;;
7807;SDS011;3949;49.254;8.894;2023-07-29T02:18:29;2.20;;;2.10;;
7807;SDS011;3949;49.254;8.894;2023-07-29T02:20:55;1.90;;;1.80;;
7807;SDS011;3949;49.254;8.894;2023-07-29T02:23:21;2.73;;;2.10;;
7807;SDS011;3949;49.254;8.894;2023-07-29T02:25:47;2.00;;;1.90;;
7807;SDS011;3949;49.254;8.894;2023-07-29T02:28:13;1.80;;;1.70;;
7807;SDS011;3949;49.254;8.894;2023-07-29T02:30:40;2.97;;;2.00;;
7807;SDS011;3949;49.254;8.894;2023-07-29T02:33:06;1.77;;;1.67;;
7807;SDS011;3949;49.254;8.894;2023-07-29T02:35:32;2.10;;;1.90;;
7807;SDS011;3949;49.254;8.894;2023-07-29T02:37:58;2.07;;;1.87;;
7807;SDS011;3949;49.254;8.894;2023-07-29T02:40:24;1.67;;;1.57;;
7807;SDS011;3949;49.254;8.894;2023-07-29T02:42:51;1.90;;;1.80;;
7807;SDS011;3949;49.254;8.894;2023-07-29T02:45:18;2.43;;;1.63;;
7807;SDS011;3949;49.254;8.894;2023-07-29T02:47:43;3.10;;;2.20;;
7807;SDS011;3949;49.254;8.894;2023-07-29T02:50:09;2.60;;;2.30;;
7807;SDS011;3949;49.254;8.894;2023-07-29T02:52:35;2.17;;;1.97;;
7807;SDS011;3949;49.254;8.894;2023-07-29T02:55:01;2.93;;;2.17;;
7807;SDS011;3949;49.254;8.894;2023-07-29T02:57:27;2.27;;;2.07;;
7807;SDS011;3949;49.254;8.894;2023-07-29T02:59:53;2.53;;;2.30;;
7807;SDS011;3949;49.254;8.894;2023-07-29T03:02:19;3.90;;;2.20;;
7807;SDS011;3949;49.254;8.894;2023-07-29T03:04:47;3.30;;;2.40;;
7807;SDS011;3949;49.254;8.894;2023-07-29T03:07:13;1.80;;;1.70;;
7807;SDS011;3949;49.254;8.894;2023-07-29T03:09:39;2.07;;;1.80;;
7807;SDS011;3949;49.254;8.894;2023-07-29T03:12:07;4.57;;;2.53;;
7807;SDS011;3949;49.254;8.894;2023-07-29T03:14:33;4.30;;;2.43;;
7807;SDS011;3949;49.254;8.894;2023-07-29T03:17:01;2.60;;;2.20;;
7807;SDS011;3949;49.254;8.894;2023-07-29T03:19:29;3.00;;;2.70;;
7807;SDS011;3949;49.254;8.894;2023-07-29T03:21:55;3.50;;;2.40;;
7807;SDS011;3949;49.254;8.894;2023-07-29T03:24:21;2.40;;;2.20;;
7807;SDS011;3949;49.254;8.894;2023-07-29T03:26:47;3.10;;;2.47;;
7807;SDS011;3949;49.254;8.894;2023-07-29T03:29:13;2.87;;;2.57;;
7807;SDS011;3949;49.254;8.894;2023-07-29T03:31:39;3.47;;;2.60;;
7807;SDS011;3949;49.254;8.894;2023-07-29T03:34:05;2.63;;;2.43;;
7807;SDS011;3949;49.254;8.894;2023-07-29T03:36:31;2.73;;;2.30;;
7807;SDS011;3949;49.254;8.894;2023-07-29T03:38:57;2.57;;;2.37;;
7807;SDS011;3949;49.254;8.894;2023-07-29T03:41:23;2.83;;;2.63;;
7807;SDS011;3949;49.254;8.894;2023-07-29T03:43:49;2.87;;;2.60;;
7807;SDS011;3949;49.254;8.894;2023-07-29T03:46:15;3.40;;;2.40;;
7807;SDS011;3949;49.254;8.894;2023-07-29T03:48:44;3.63;;;2.10;;
7807;SDS011;3949;49.254;8.894;2023-07-29T03:51:10;3.60;;;2.57;;
7807;SDS011;3949;49.254;8.894;2023-07-29T03:53:36;2.87;;;2.50;;
7807;SDS011;3949;49.254;8.894;2023-07-29T03:56:02;2.63;;;2.43;;
7807;SDS011;3949;49.254;8.894;2023-07-29T03:58:28;2.93;;;2.37;;
7807;SDS011;3949;49.254;8.894;2023-07-29T04:00:54;2.50;;;2.30;;
7807;SDS011;3949;49.254;8.894;2023-07-29T04:03:20;2.77;;;2.00;;
7807;SDS011;3949;49.254;8.894;2023-07-29T04:05:46;3.17;;;2.10;;
7807;SDS011;3949;49.254;8.894;2023-07-29T04:08:12;2.40;;;2.20;;
7807;SDS011;3949;49.254;8.894;2023-07-29T04:10:38;2.50;;;2.30;;
7807;SDS011;3949;49.254;8.894;2023-07-29T04:13:04;3.60;;;2.33;;
7807;SDS011;3949;49.254;8.894;2023-07-29T04:15:30;3.07;;;2.27;;
7807;SDS011;3949;49.254;8.894;2023-07-29T04:17:56;2.70;;;2.30;;
7807;SDS011;3949;49.254;8.894;2023-07-29T04:20:22;2.43;;;2.23;;
7807;SDS011;3949;49.254;8.894;2023-07-29T04:22:48;2.77;;;2.30;;
7807;SDS011;3949;49.254;8.894;2023-07-29T04:25:14;3.60;;;2.40;;
7807;SDS011;3949;49.254;8.894;2023-07-29T04:27:40;2.60;;;2.40;;
7807;SDS011;3949;49.254;8.894;2023-07-29T04:30:06;2.80;;;2.23;;
7807;SDS011;3949;49.254;8.894;2023-07-29T04:32:32;2.77;;;2.40;;
7807;SDS011;3949;49.254;8.894;2023-07-29T04:34:58;3.13;;;2.43;;
7807;SDS011;3949;49.254;8.894;2023-07-29T04:37:24;2.40;;;2.20;;
7807;SDS011;3949;49.254;8.894;2023-07-29T04:39:50;2.67;;;2.17;;
7807;SDS011;3949;49.254;8.894;2023-07-29T04:42:16;2.67;;;2.47;;
7807;SDS011;3949;49.254;8.894;2023-07-29T04:44:42;2.77;;;2.10;;
7807;SDS011;3949;49.254;8.894;2023-07-29T04:47:08;2.37;;;2.00;;
7807;SDS011;3949;49.254;8.894;2023-07-29T04:49:34;2.70;;;2.43;;
7807;SDS011;3949;49.254;8.894;2023-07-29T04:52:00;4.17;;;2.70;;
7807;SDS011;3949;49.254;8.894;2023-07-29T04:54:26;2.30;;;2.10;;
7807;SDS011;3949;49.254;8.894;2023-07-29T04:56:52;3.20;;;2.20;;
7807;SDS011;3949;49.254;8.894;2023-07-29T04:59:18;4.07;;;2.40;;
7807;SDS011;3949;49.254;8.894;2023-07-29T05:01:44;3.63;;;2.23;;
7807;SDS011;3949;49.254;8.894;2023-07-29T05:04:10;2.77;;;2.07;;
7807;SDS011;3949;49.254;8.894;2023-07-29T05:06:36;2.90;;;2.13;;
7807;SDS011;3949;49.254;8.894;2023-07-29T05:09:14;4.63;;;2.30;;
7807;SDS011;3949;49.254;8.894;2023-07-29T05:11:41;2.93;;;2.50;;
7807;SDS011;3949;49.254;8.894;2023-07-29T05:14:07;4.10;;;3.07;;
7807;SDS011;3949;49.254;8.894;2023-07-29T05:16:34;2.67;;;2.37;;
7807;SDS011;3949;49.254;8.894;2023-07-29T05:19:00;2.60;;;2.37;;
7807;SDS011;3949;49.254;8.894;2023-07-29T05:21:26;2.60;;;2.30;;
7807;SDS011;3949;49.254;8.894;2023-07-29T05:23:52;2.97;;;2.50;;
7807;SDS011;3949;49.254;8.894;2023-07-29T05:26:18;2.23;;;2.03;;
7807;SDS011;3949;49.254;8.894;2023-07-29T05:28:44;3.33;;;2.37;;
7807;SDS011;3949;49.254;8.894;2023-07-29T05:31:10;2.73;;;2.53;;
7807;SDS011;3949;49.254;8.894;2023-07-29T05:33:36;3.07;;;2.40;;
7807;SDS011;3949;49.254;8.894;2023-07-29T05:36:02;2.30;;;2.10;;
7807;SDS011;3949;49.254;8.894;2023-07-29T05:38:28;2.37;;;2.17;;
7807;SDS011;3949;49.254;8.894;2023-07-29T05:40:54;3.33;;;2.57;;
7807;SDS011;3949;49.254;8.894;2023-07-29T05:43:20;2.63;;;2.20;;
7807;SDS011;3949;49.254;8.894;2023-07-29T05:45:46;3.00;;;2.23;;
7807;SDS011;3949;49.254;8.894;2023-07-29T05:48:12;2.77;;;2.40;;
7807;SDS011;3949;49.254;8.894;2023-07-29T05:50:38;2.27;;;1.97;;
7807;SDS011;3949;49.254;8.894;2023-07-29T05:53:04;2.37;;;2.17;;
7807;SDS011;3949;49.254;8.894;2023-07-29T05:55:30;5.03;;;4.50;;
7807;SDS011;3949;49.254;8.894;2023-07-29T05:57:55;4.60;;;4.13;;
7807;SDS011;3949;49.254;8.894;2023-07-29T06:00:22;2.87;;;2.40;;
7807;SDS011;3949;49.254;8.894;2023-07-29T06:02:48;2.77;;;2.27;;
7807;SDS011;3949;49.254;8.894;2023-07-29T06:05:14;2.73;;;2.47;;
7807;SDS011;3949;49.254;8.894;2023-07-29T06:07:40;3.00;;;2.27;;
7807;SDS011;3949;49.254;8.894;2023-07-29T06:10:13;2.73;;;2.10;;
7807;SDS011;3949;49.254;8.894;2023-07-29T06:12:42;2.90;;;2.70;;
7807;SDS011;3949;49.254;8.894;2023-07-29T06:15:08;3.70;;;3.27;;
7807;SDS011;3949;49.254;8.894;2023-07-29T06:17:34;3.13;;;2.67;;
7807;SDS011;3949;49.254;8.894;2023-07-29T06:20:00;2.47;;;2.27;;
7807;SDS011;3949;49.254;8.894;2023-07-29T06:22:27;2.30;;;2.10;;
7807;SDS011;3949;49.254;8.894;2023-07-29T06:24:53;3.57;;;2.30;;
7807;SDS011;3949;49.254;8.894;2023-07-29T06:27:19;3.47;;;2.40;;
7807;SDS011;3949;49.254;8.894;2023-07-29T06:29:45;2.40;;;2.20;;
7807;SDS011;3949;49.254;8.894;2023-07-29T06:32:11;2.50;;;2.30;;
7807;SDS011;3949;49.254;8.894;2023-07-29T06:34:37;3.73;;;2.20;;
7807;SDS011;3949;49.254;8.894;2023-07-29T06:37:03;2.03;;;1.83;;
7807;SDS011;3949;49.254;8.894;2023-07-29T06:39:29;3.40;;;2.23;;
7807;SDS011;3949;49.254;8.894;2023-07-29T06:41:55;2.27;;;1.77;;
7807;SDS011;3949;49.254;8.894;2023-07-29T06:44:21;1.83;;;1.67;;
7807;SDS011;3949;49.254;8.894;2023-07-29T06:46:47;2.10;;;1.90;;
7807;SDS011;3949;49.254;8.894;2023-07-29T06:49:13;2.30;;;2.00;;
7807;SDS011;3949;49.254;8.894;2023-07-29T06:51:39;1.97;;;1.87;;
7807;SDS011;3949;49.254;8.894;2023-07-29T06:54:05;2.53;;;2.10;;
7807;SDS011;3949;49.254;8.894;2023-07-29T06:56:31;1.97;;;1.80;;
7807;SDS011;3949;49.254;8.894;2023-07-29T06:58:57;1.73;;;1.60;;
7807;SDS011;3949;49.254;8.894;2023-07-29T07:01:23;2.63;;;1.90;;
7807;SDS011;3949;49.254;8.894;2023-07-29T07:03:49;1.87;;;1.77;;
7807;SDS011;3949;49.254;8.894;2023-07-29T07:06:19;3.77;;;1.70;;
7807;SDS011;3949;49.254;8.894;2023-07-29T07:08:45;1.90;;;1.67;;
7807;SDS011;3949;49.254;8.894;2023-07-29T07:11:11;5.70;;;5.10;;
7807;SDS011;3949;49.254;8.894;2023-07-29T07:13:37;3.43;;;3.13;;
7807;SDS011;3949;49.254;8.894;2023-07-29T07:16:03;2.00;;;1.90;;
7807;SDS011;3949;49.254;8.894;2023-07-29T07:18:29;2.10;;;1.90;;
7807;SDS011;3949;49.254;8.894;2023-07-29T07:20:55;2.37;;;2.10;;
7807;SDS011;3949;49.254;8.894;2023-07-29T07:23:21;2.47;;;1.90;;
7807;SDS011;3949;49.254;8.894;2023-07-29T07:25:46;2.57;;;1.40;;
7807;SDS011;3949;49.254;8.894;2023-07-29T07:28:12;3.83;;;1.63;;
7807;SDS011;3949;49.254;8.894;2023-07-29T07:30:42;2.07;;;1.77;;
7807;SDS011;3949;49.254;8.894;2023-07-29T07:33:08;4.10;;;1.90;;
7807;SDS011;3949;49.254;8.894;2023-07-29T07:35:34;2.03;;;1.93;;
7807;SDS011;3949;49.254;8.894;2023-07-29T07:38:00;2.47;;;2.10;;
7807;SDS011;3949;49.254;8.894;2023-07-29T07:40:28;2.20;;;2.00;;
7807;SDS011;3949;49.254;8.894;2023-07-29T07:42:54;2.10;;;1.90;;
7807;SDS011;3949;49.254;8.894;2023-07-29T07:45:20;1.77;;;1.67;;
7807;SDS011;3949;49.254;8.894;2023-07-29T07:47:46;2.23;;;1.90;;
7807;SDS011;3949;49.254;8.894;2023-07-29T07:50:13;1.60;;;1.50;;
7807;SDS011;3949;49.254;8.894;2023-07-29T07:52:39;1.80;;;1.70;;
7807;SDS011;3949;49.254;8.894;2023-07-29T07:55:05;2.87;;;1.90;;
7807;SDS011;3949;49.254;8.894;2023-07-29T07:57:31;2.53;;;2.00;;
7807;SDS011;3949;49.254;8.894;2023-07-29T07:59:57;2.00;;;1.80;;
7807;SDS011;3949;49.254;8.894;2023-07-29T08:02:23;1.70;;;1.60;;
7807;SDS011;3949;49.254;8.894;2023-07-29T08:04:49;2.17;;;1.60;;
7807;SDS011;3949;49.254;8.894;2023-07-29T08:07:15;1.27;;;1.23;;
7807;SDS011;3949;49.254;8.894;2023-07-29T08:09:41;2.70;;;2.00;;
7807;SDS011;3949;49.254;8.894;2023-07-29T08:12:07;3.00;;;2.30;;
7807;SDS011;3949;49.254;8.894;2023-07-29T08:14:33;3.50;;;1.60;;
7807;SDS011;3949;49.254;8.894;2023-07-29T08:16:59;3.93;;;1.83;;
7807;SDS011;3949;49.254;8.894;2023-07-29T08:19:25;2.50;;;1.80;;
7807;SDS011;3949;49.254;8.894;2023-07-29T08:21:51;3.93;;;2.40;;
7807;SDS011;3949;49.254;8.894;2023-07-29T08:24:17;6.37;;;1.90;;
7807;SDS011;3949;49.254;8.894;2023-07-29T08:26:43;1.50;;;1.40;;
7807;SDS011;3949;49.254;8.894;2023-07-29T08:29:08;1.60;;;1.40;;
7807;SDS011;3949;49.254;8.894;2023-07-29T08:31:34;2.50;;;1.70;;
7807;SDS011;3949;49.254;8.894;2023-07-29T08:34:00;1.90;;;1.50;;
7807;SDS011;3949;49.254;8.894;2023-07-29T08:36:26;2.63;;;1.83;;
7807;SDS011;3949;49.254;8.894;2023-07-29T08:38:52;1.60;;;1.50;;
7807;SDS011;3949;49.254;8.894;2023-07-29T08:43:52;1.70;;;1.60;;
7807;SDS011;3949;49.254;8.894;2023-07-29T08:46:21;1.80;;;1.50;;
7807;SDS011;3949;49.254;8.894;2023-07-29T08:48:47;1.53;;;1.43;;
7807;SDS011;3949;49.254;8.894;2023-07-29T08:51:13;2.10;;;2.00;;
7807;SDS011;3949;49.254;8.894;2023-07-29T08:53:40;2.13;;;1.90;;
7807;SDS011;3949;49.254;8.894;2023-07-29T08:56:06;2.00;;;1.50;;
7807;SDS011;3949;49.254;8.894;2023-07-29T08:58:32;2.00;;;1.90;;
7807;SDS011;3949;49.254;8.894;2023-07-29T09:00:59;1.70;;;1.60;;
7807;SDS011;3949;49.254;8.894;2023-07-29T09:03:25;2.83;;;2.33;;
7807;SDS011;3949;49.254;8.894;2023-07-29T09:05:51;2.67;;;1.90;;
7807;SDS011;3949;49.254;8.894;2023-07-29T09:08:18;2.30;;;2.10;;
7807;SDS011;3949;49.254;8.894;2023-07-29T09:10:46;2.30;;;1.63;;
7807;SDS011;3949;49.254;8.894;2023-07-29T09:13:12;1.97;;;1.87;;
7807;SDS011;3949;49.254;8.894;2023-07-29T09:15:38;1.70;;;1.60;;
7807;SDS011;3949;49.254;8.894;2023-07-29T09:18:12;1.83;;;1.73;;
7807;SDS011;3949;49.254;8.894;2023-07-29T09:20:38;1.70;;;1.50;;
7807;SDS011;3949;49.254;8.894;2023-07-29T09:23:06;1.67;;;1.57;;
7807;SDS011;3949;49.254;8.894;2023-07-29T09:25:33;1.60;;;1.50;;
7807;SDS011;3949;49.254;8.894;2023-07-29T09:28:00;1.60;;;1.50;;
7807;SDS011;3949;49.254;8.894;2023-07-29T09:30:27;1.40;;;1.30;;
7807;SDS011;3949;49.254;8.894;2023-07-29T09:32:56;1.50;;;1.43;;
7807;SDS011;3949;49.254;8.894;2023-07-29T09:35:22;3.10;;;1.30;;
7807;SDS011;3949;49.254;8.894;2023-07-29T09:37:49;1.77;;;1.50;;
7807;SDS011;3949;49.254;8.894;2023-07-29T09:40:16;2.70;;;1.80;;
7807;SDS011;3949;49.254;8.894;2023-07-29T09:42:49;1.70;;;1.60;;
7807;SDS011;3949;49.254;8.894;2023-07-29T09:45:23;1.85;;;1.60;;
7807;SDS011;3949;49.254;8.894;2023-07-29T09:47:50;1.60;;;1.50;;
7807;SDS011;3949;49.254;8.894;2023-07-29T09:50:16;2.05;;;1.50;;
7807;SDS011;3949;49.254;8.894;2023-07-29T09:52:42;2.00;;;1.63;;
7807;SDS011;3949;49.254;8.894;2023-07-29T09:55:12;1.70;;;1.60;;
7807;SDS011;3949;49.254;8.894;2023-07-29T09:57:41;1.70;;;1.60;;
7807;SDS011;3949;49.254;8.894;2023-07-29T10:00:10;2.33;;;1.90;;
7807;SDS011;3949;49.254;8.894;2023-07-29T10:02:37;1.90;;;1.60;;
7807;SDS011;3949;49.254;8.894;2023-07-29T10:05:04;4.17;;;3.77;;
7807;SDS011;3949;49.254;8.894;2023-07-29T10:07:30;1.73;;;1.50;;
7807;SDS011;3949;49.254;8.894;2023-07-29T10:09:57;1.50;;;1.38;;
7807;SDS011;3949;49.254;8.894;2023-07-29T10:12:23;1.98;;;1.42;;
7807;SDS011;3949;49.254;8.894;2023-07-29T10:14:50;1.30;;;1.20;;
7807;SDS011;3949;49.254;8.894;2023-07-29T10:17:16;2.35;;;1.40;;
7807;SDS011;3949;49.254;8.894;2023-07-29T10:19:43;1.50;;;1.40;;
7807;SDS011;3949;49.254;8.894;2023-07-29T10:22:10;1.58;;;1.48;;
7807;SDS011;3949;49.254;8.894;2023-07-29T10:24:37;1.52;;;1.40;;
7807;SDS011;3949;49.254;8.894;2023-07-29T10:27:06;1.77;;;1.50;;
7807;SDS011;3949;49.254;8.894;2023-07-29T10:29:32;1.48;;;1.38;;
7807;SDS011;3949;49.254;8.894;2023-07-29T10:32:12;1.80;;;1.70;;
7807;SDS011;3949;49.254;8.894;2023-07-29T10:34:38;1.60;;;1.50;;
7807;SDS011;3949;49.254;8.894;2023-07-29T10:37:04;2.03;;;1.70;;
7807;SDS011;3949;49.254;8.894;2023-07-29T10:39:37;3.80;;;3.50;;
7807;SDS011;3949;49.254;8.894;2023-07-29T10:42:05;1.87;;;1.77;;
7807;SDS011;3949;49.254;8.894;2023-07-29T10:47:17;1.70;;;1.60;;
7807;SDS011;3949;49.254;8.894;2023-07-29T10:49:43;1.90;;;1.80;;
7807;SDS011;3949;49.254;8.894;2023-07-29T10:52:28;2.63;;;1.93;;
7807;SDS011;3949;49.254;8.894;2023-07-29T10:54:54;2.00;;;1.80;;
7807;SDS011;3949;49.254;8.894;2023-07-29T10:57:33;1.80;;;1.70;;
7807;SDS011;3949;49.254;8.894;2023-07-29T10:59:59;3.67;;;1.70;;
7807;SDS011;3949;49.254;8.894;2023-07-29T11:02:35;1.80;;;1.70;;
7807;SDS011;3949;49.254;8.894;2023-07-29T11:05:05;2.50;;;1.93;;
7807;SDS011;3949;49.254;8.894;2023-07-29T11:07:32;2.20;;;2.00;;
7807;SDS011;3949;49.254;8.894;2023-07-29T11:10:08;1.90;;;1.80;;
7807;SDS011;3949;49.254;8.894;2023-07-29T11:12:37;2.67;;;2.40;;
7807;SDS011;3949;49.254;8.894;2023-07-29T11:17:57;1.87;;;1.50;;
7807;SDS011;3949;49.254;8.894;2023-07-29T11:22:53;1.77;;;1.40;;
7807;SDS011;3949;49.254;8.894;2023-07-29T11:25:20;1.93;;;1.60;;
7807;SDS011;3949;49.254;8.894;2023-07-29T11:27:46;1.50;;;1.40;;
7807;SDS011;3949;49.254;8.894;2023-07-29T11:30:14;1.20;;;1.10;;
7807;SDS011;3949;49.254;8.894;2023-07-29T11:32:42;3.40;;;1.83;;
7807;SDS011;3949;49.254;8.894;2023-07-29T11:35:09;3.42;;;1.63;;
7807;SDS011;3949;49.254;8.894;2023-07-29T11:37:36;2.80;;;2.05;;
7807;SDS011;3949;49.254;8.894;2023-07-29T11:40:02;1.48;;;1.38;;
7807;SDS011;3949;49.254;8.894;2023-07-29T11:42:31;1.60;;;1.50;;
7807;SDS011;3949;49.254;8.894;2023-07-29T11:44:57;1.80;;;1.50;;
7807;SDS011;3949;49.254;8.894;2023-07-29T11:47:23;1.40;;;1.30;;
7807;SDS011;3949;49.254;8.894;2023-07-29T11:49:49;1.87;;;1.50;;
7807;SDS011;3949;49.254;8.894;2023-07-29T11:52:15;1.63;;;1.53;;
7807;SDS011;3949;49.254;8.894;2023-07-29T11:54:44;1.60;;;1.50;;
7807;SDS011;3949;49.254;8.894;2023-07-29T11:57:10;2.67;;;2.13;;
7807;SDS011;3949;49.254;8.894;2023-07-29T11:59:36;3.57;;;1.63;;
7807;SDS011;3949;49.254;8.894;2023-07-29T12:02:12;1.20;;;1.10;;
7807;SDS011;3949;49.254;8.894;2023-07-29T12:04:39;1.50;;;1.40;;
7807;SDS011;3949;49.254;8.894;2023-07-29T12:07:05;1.65;;;1.55;;
7807;SDS011;3949;49.254;8.894;2023-07-29T12:09:32;1.80;;;1.50;;
7807;SDS011;3949;49.254;8.894;2023-07-29T12:11:58;1.95;;;1.40;;
7807;SDS011;3949;49.254;8.894;2023-07-29T12:14:28;1.52;;;1.42;;
7807;SDS011;3949;49.254;8.894;2023-07-29T12:16:54;1.75;;;1.65;;
7807;SDS011;3949;49.254;8.894;2023-07-29T12:19:20;1.60;;;1.50;;
7807;SDS011;3949;49.254;8.894;2023-07-29T12:21:47;1.80;;;1.70;;
7807;SDS011;3949;49.254;8.894;2023-07-29T12:24:14;1.50;;;1.40;;
7807;SDS011;3949;49.254;8.894;2023-07-29T12:26:40;1.50;;;1.40;;
7807;SDS011;3949;49.254;8.894;2023-07-29T12:29:16;1.40;;;1.30;;
7807;SDS011;3949;49.254;8.894;2023-07-29T12:31:44;1.63;;;1.48;;
7807;SDS011;3949;49.254;8.894;2023-07-29T12:34:16;1.40;;;1.30;;
7807;SDS011;3949;49.254;8.894;2023-07-29T12:36:46;1.38;;;1.27;;
7807;SDS011;3949;49.254;8.894;2023-07-29T12:39:19;1.52;;;1.42;;
7807;SDS011;3949;49.254;8.894;2023-07-29T12:41:45;2.22;;;2.13;;
7807;SDS011;3949;49.254;8.894;2023-07-29T12:44:12;1.48;;;1.25;;
7807;SDS011;3949;49.254;8.894;2023-07-29T12:46:37;1.48;;;1.38;;
7807;SDS011;3949;49.254;8.894;2023-07-29T12:49:03;1.95;;;1.23;;
7807;SDS011;3949;49.254;8.894;2023-07-29T12:51:29;3.63;;;3.33;;
7807;SDS011;3949;49.254;8.894;2023-07-29T12:53:55;3.15;;;2.90;;
7807;SDS011;3949;49.254;8.894;2023-07-29T12:56:21;1.60;;;1.50;;
7807;SDS011;3949;49.254;8.894;2023-07-29T12:58:47;1.70;;;1.60;;
7807;SDS011;3949;49.254;8.894;2023-07-29T13:01:14;1.30;;;1.30;;
7807;SDS011;3949;49.254;8.894;2023-07-29T13:03:43;1.73;;;1.63;;
7807;SDS011;3949;49.254;8.894;2023-07-29T13:06:09;3.17;;;1.38;;
7807;SDS011;3949;49.254;8.894;2023-07-29T13:08:35;1.90;;;1.80;;
7807;SDS011;3949;49.254;8.894;2023-07-29T13:11:01;3.00;;;2.50;;
7807;SDS011;3949;49.254;8.894;2023-07-29T13:13:28;2.10;;;1.92;;
7807;SDS011;3949;49.254;8.894;2023-07-29T13:15:54;5.65;;;4.65;;
7807;SDS011;3949;49.254;8.894;2023-07-29T13:18:20;1.92;;;1.60;;
7807;SDS011;3949;49.254;8.894;2023-07-29T13:20:46;2.53;;;1.80;;
7807;SDS011;3949;49.254;8.894;2023-07-29T13:23:12;1.80;;;1.70;;
7807;SDS011;3949;49.254;8.894;2023-07-29T13:25:38;1.73;;;1.58;;
7807;SDS011;3949;49.254;8.894;2023-07-29T13:28:04;1.58;;;1.48;;
7807;SDS011;3949;49.254;8.894;2023-07-29T13:30:30;1.88;;;1.77;;
7807;SDS011;3949;49.254;8.894;2023-07-29T13:32:56;1.60;;;1.50;;
7807;SDS011;3949;49.254;8.894;2023-07-29T13:35:22;1.95;;;1.80;;
7807;SDS011;3949;49.254;8.894;2023-07-29T13:37:48;2.10;;;1.95;;
7807;SDS011;3949;49.254;8.894;2023-07-29T13:40:14;1.95;;;1.85;;
7807;SDS011;3949;49.254;8.894;2023-07-29T13:42:40;2.03;;;1.88;;
7807;SDS011;3949;49.254;8.894;2023-07-29T13:45:07;1.75;;;1.65;;
7807;SDS011;3949;49.254;8.894;2023-07-29T13:47:33;3.15;;;1.80;;
7807;SDS011;3949;49.254;8.894;2023-07-29T13:49:59;2.45;;;1.60;;
7807;SDS011;3949;49.254;8.894;2023-07-29T13:52:25;1.55;;;1.45;;
7807;SDS011;3949;49.254;8.894;2023-07-29T13:54:51;1.77;;;1.67;;
7807;SDS011;3949;49.254;8.894;2023-07-29T13:57:17;1.67;;;1.58;;
7807;SDS011;3949;49.254;8.894;2023-07-29T13:59:43;1.85;;;1.75;;
7807;SDS011;3949;49.254;8.894;2023-07-29T14:02:09;1.73;;;1.60;;
7807;SDS011;3949;49.254;8.894;2023-07-29T14:04:35;2.08;;;1.50;;
7807;SDS011;3949;49.254;8.894;2023-07-29T14:07:01;1.58;;;1.48;;
7807;SDS011;3949;49.254;8.894;2023-07-29T14:09:27;1.70;;;1.60;;
7807;SDS011;3949;49.254;8.894;2023-07-29T14:11:54;2.83;;;1.45;;
7807;SDS011;3949;49.254;8.894;2023-07-29T14:14:20;1.60;;;1.50;;
7807;SDS011;3949;49.254;8.894;2023-07-29T14:16:46;2.85;;;1.52;;
7807;SDS011;3949;49.254;8.894;2023-07-29T14:19:12;1.70;;;1.60;;
7807;SDS011;3949;49.254;8.894;2023-07-29T14:21:38;1.90;;;1.80;;
7807;SDS011;3949;49.254;8.894;2023-07-29T14:24:05;1.75;;;1.63;;
7807;SDS011;3949;49.254;8.894;2023-07-29T14:26:31;2.30;;;1.50;;
7807;SDS011;3949;49.254;8.894;2023-07-29T14:28:57;2.08;;;1.58;;
7807;SDS011;3949;49.254;8.894;2023-07-29T14:31:23;1.80;;;1.70;;
7807;SDS011;3949;49.254;8.894;2023-07-29T14:33:49;2.03;;;1.92;;
7807;SDS011;3949;49.254;8.894;2023-07-29T14:36:18;1.52;;;1.42;;
7807;SDS011;3949;49.254;8.894;2023-07-29T14:38:44;1.30;;;1.30;;
7807;SDS011;3949;49.254;8.894;2023-07-29T14:41:09;2.00;;;1.80;;
7807;SDS011;3949;49.254;8.894;2023-07-29T14:43:35;1.55;;;1.48;;
7807;SDS011;3949;49.254;8.894;2023-07-29T14:46:01;2.40;;;1.42;;
7807;SDS011;3949;49.254;8.894;2023-07-29T14:48:28;5.30;;;1.70;;
7807;SDS011;3949;49.254;8.894;2023-07-29T14:50:54;1.70;;;1.60;;
7807;SDS011;3949;49.254;8.894;2023-07-29T14:53:20;2.45;;;1.73;;
7807;SDS011;3949;49.254;8.894;2023-07-29T14:55:46;2.25;;;2.05;;
7807;SDS011;3949;49.254;8.894;2023-07-29T14:58:12;2.00;;;1.90;;
7807;SDS011;3949;49.254;8.894;2023-07-29T15:00:38;1.98;;;1.80;;
7807;SDS011;3949;49.254;8.894;2023-07-29T15:03:04;1.55;;;1.45;;
7807;SDS011;3949;49.254;8.894;2023-07-29T15:05:32;1.95;;;1.80;;
7807;SDS011;3949;49.254;8.894;2023-07-29T15:07:58;1.48;;;1.38;;
7807;SDS011;3949;49.254;8.894;2023-07-29T15:10:24;1.80;;;1.70;;
7807;SDS011;3949;49.254;8.894;2023-07-29T15:12:50;2.35;;;1.60;;
7807;SDS011;3949;49.254;8.894;2023-07-29T15:15:16;1.80;;;1.70;;
7807;SDS011;3949;49.254;8.894;2023-07-29T15:17:42;1.60;;;1.50;;
7807;SDS011;3949;49.254;8.894;2023-07-29T15:20:09;1.98;;;1.83;;
7807;SDS011;3949;49.254;8.894;2023-07-29T15:22:35;1.80;;;1.70;;
7807;SDS011;3949;49.254;8.894;2023-07-29T15:25:01;2.47;;;2.00;;
7807;SDS011;3949;49.254;8.894;2023-07-29T15:27:28;1.77;;;1.67;;
7807;SDS011;3949;49.254;8.894;2023-07-29T15:29:54;2.57;;;1.80;;